Rochester International Airport

Airport
ICAO code: 
KRST
Summary
ICAO Region: 
NAM
Territory: 
Location: 
Rochester, Minnesota,
Coordinates: 
Aerial View: 
43° 54' 25.999" N, 92° 29' 56" W
Airport CFIT: 
Altimeter Temperature Error Correction
Airport GND: 
Aircraft Ground De/Anti Icing
Airport RE: 
Landing on Contaminated Runways
Metar
Observation
KRST 020854Z AUTO 30014KT 10SM BKN110 09/06 A2970 RMK AO2 SLP063 T00890056 53020
Station
Rochester, Rochester International Airport
Date/Time
2021-12-02 08:54:00
Wind direction
300°
Wind speed
14 kts
Lowest cloud amount
broken clouds
Temperature
8.9°C
Dew point
5.6°C
Humidity
79%
Weather condition
n/a

Description

Rochester International Airport is a primary airport located 11 km southwest of the central business district of Rochester, a city in Olmsted County, Minnesota.

Climatology

Humid continental climate (Köppen climate classification Dfa) - characterized by four seasons: cold, windy, snowy winters, mild springs, hot, humid summers, and crisp and relatively short autumns. Precipitation reaches its lowest in January and February and peaks in summer and latter half of spring.

Runways

Designator Length Width Surface Rops
2/20 2225 46 CON Yes/Yes
13/31 2753 46 CON Yes/Yes
Airport map: 
Aerial View: 

SKYbrary Partners:

Safety knowledge contributed by: